sensor_id;sensor_type;location;lat;lon;timestamp;pressure;altitude;pressure_sealevel;temperature;humidity
76084;BME280;64789;0.000;0.000;2023-07-20T00:01:07;93414.25;;;21.77;54.56
76084;BME280;64789;0.000;0.000;2023-07-20T00:03:32;93415.00;;;21.78;54.54
76084;BME280;64789;0.000;0.000;2023-07-20T00:05:58;93413.19;;;21.84;54.05
76084;BME280;64789;0.000;0.000;2023-07-20T00:08:24;93420.13;;;21.81;53.68
76084;BME280;64789;0.000;0.000;2023-07-20T00:10:49;93418.78;;;21.82;53.67
76084;BME280;64789;0.000;0.000;2023-07-20T00:13:15;93415.84;;;21.80;53.84
76084;BME280;64789;0.000;0.000;2023-07-20T00:15:45;93415.75;;;21.78;53.33
76084;BME280;64789;0.000;0.000;2023-07-20T00:18:11;93413.81;;;21.83;53.07
76084;BME280;64789;0.000;0.000;2023-07-20T00:20:36;93419.75;;;21.73;53.30
76084;BME280;64789;0.000;0.000;2023-07-20T00:23:02;93403.19;;;21.83;52.73
76084;BME280;64789;0.000;0.000;2023-07-20T00:25:27;93403.50;;;21.89;51.96
76084;BME280;64789;0.000;0.000;2023-07-20T00:27:53;93393.38;;;21.86;52.52
76084;BME280;64789;0.000;0.000;2023-07-20T00:30:19;93386.13;;;21.83;53.19
76084;BME280;64789;0.000;0.000;2023-07-20T00:32:45;93381.41;;;21.74;53.23
76084;BME280;64789;0.000;0.000;2023-07-20T00:35:11;93379.66;;;21.67;53.35
76084;BME280;64789;0.000;0.000;2023-07-20T00:37:37;93387.06;;;21.58;53.91
76084;BME280;64789;0.000;0.000;2023-07-20T00:40:03;93377.22;;;21.46;54.75
76084;BME280;64789;0.000;0.000;2023-07-20T00:42:33;93360.91;;;21.33;55.18
76084;BME280;64789;0.000;0.000;2023-07-20T00:44:59;93370.75;;;21.30;54.35
76084;BME280;64789;0.000;0.000;2023-07-20T00:47:26;93364.44;;;21.18;55.99
76084;BME280;64789;0.000;0.000;2023-07-20T00:49:52;93371.19;;;20.97;56.66
76084;BME280;64789;0.000;0.000;2023-07-20T00:52:17;93366.56;;;20.90;57.10
76084;BME280;64789;0.000;0.000;2023-07-20T00:54:44;93364.06;;;20.69;57.89
76084;BME280;64789;0.000;0.000;2023-07-20T00:57:10;93374.59;;;20.53;58.20
76084;BME280;64789;0.000;0.000;2023-07-20T00:59:37;93367.53;;;20.40;59.35
76084;BME280;64789;0.000;0.000;2023-07-20T01:02:03;93371.09;;;20.27;59.48
76084;BME280;64789;0.000;0.000;2023-07-20T01:04:28;93370.31;;;20.13;60.33
76084;BME280;64789;0.000;0.000;2023-07-20T01:09:28;93367.22;;;20.34;59.05
76084;BME280;64789;0.000;0.000;2023-07-20T01:12:02;93361.00;;;20.38;58.54
76084;BME280;64789;0.000;0.000;2023-07-20T01:14:31;93355.94;;;20.22;59.93
76084;BME280;64789;0.000;0.000;2023-07-20T01:16:58;93355.91;;;20.09;59.70
76084;BME280;64789;0.000;0.000;2023-07-20T01:19:23;93362.09;;;20.05;60.13
76084;BME280;64789;0.000;0.000;2023-07-20T01:21:56;93359.94;;;19.79;61.05
76084;BME280;64789;0.000;0.000;2023-07-20T01:29:54;93366.19;;;19.38;61.84
76084;BME280;64789;0.000;0.000;2023-07-20T01:32:23;93370.22;;;19.10;62.51
76084;BME280;64789;0.000;0.000;2023-07-20T01:34:52;93377.41;;;19.25;61.97
76084;BME280;64789;0.000;0.000;2023-07-20T01:37:17;93370.03;;;19.31;61.69
76084;BME280;64789;0.000;0.000;2023-07-20T01:39:45;93369.25;;;19.42;60.92
76084;BME280;64789;0.000;0.000;2023-07-20T01:42:11;93379.38;;;19.59;60.20
76084;BME280;64789;0.000;0.000;2023-07-20T01:44:37;93375.94;;;19.60;60.49
76084;BME280;64789;0.000;0.000;2023-07-20T01:47:03;93363.38;;;19.63;60.10
76084;BME280;64789;0.000;0.000;2023-07-20T01:49:29;93365.19;;;19.45;60.72
76084;BME280;64789;0.000;0.000;2023-07-20T01:51:54;93357.59;;;19.36;61.52
76084;BME280;64789;0.000;0.000;2023-07-20T01:54:20;93361.16;;;19.37;61.71
76084;BME280;64789;0.000;0.000;2023-07-20T01:56:46;93359.06;;;19.37;61.23
76084;BME280;64789;0.000;0.000;2023-07-20T01:59:12;93356.97;;;19.38;61.42
76084;BME280;64789;0.000;0.000;2023-07-20T02:01:37;93357.47;;;19.23;61.96
76084;BME280;64789;0.000;0.000;2023-07-20T02:04:03;93362.53;;;19.24;62.05
76084;BME280;64789;0.000;0.000;2023-07-20T02:06:28;93359.09;;;19.26;61.58
76084;BME280;64789;0.000;0.000;2023-07-20T02:08:54;93373.19;;;19.12;62.41
76084;BME280;64789;0.000;0.000;2023-07-20T02:11:19;93359.53;;;19.09;62.41
76084;BME280;64789;0.000;0.000;2023-07-20T02:13:45;93351.22;;;19.24;61.51
76084;BME280;64789;0.000;0.000;2023-07-20T02:16:10;93348.38;;;19.24;61.27
76084;BME280;64789;0.000;0.000;2023-07-20T02:18:36;93346.25;;;19.25;61.18
76084;BME280;64789;0.000;0.000;2023-07-20T02:21:02;93339.03;;;19.47;60.35
76084;BME280;64789;0.000;0.000;2023-07-20T02:23:28;93346.69;;;19.44;60.59
76084;BME280;64789;0.000;0.000;2023-07-20T02:25:53;93359.16;;;19.39;60.95
76084;BME280;64789;0.000;0.000;2023-07-20T02:28:19;93347.72;;;19.37;60.77
76084;BME280;64789;0.000;0.000;2023-07-20T02:30:44;93352.38;;;19.44;61.08
76084;BME280;64789;0.000;0.000;2023-07-20T02:33:10;93354.97;;;19.40;61.17
76084;BME280;64789;0.000;0.000;2023-07-20T02:35:35;93355.72;;;19.41;61.04
76084;BME280;64789;0.000;0.000;2023-07-20T02:38:01;93353.38;;;19.37;60.96
76084;BME280;64789;0.000;0.000;2023-07-20T02:40:26;93357.31;;;19.32;61.23
76084;BME280;64789;0.000;0.000;2023-07-20T02:42:52;93363.09;;;19.34;61.39
76084;BME280;64789;0.000;0.000;2023-07-20T02:45:18;93358.44;;;19.27;61.38
76084;BME280;64789;0.000;0.000;2023-07-20T02:47:44;93350.69;;;19.28;61.27
76084;BME280;64789;0.000;0.000;2023-07-20T02:50:10;93346.03;;;19.21;61.54
76084;BME280;64789;0.000;0.000;2023-07-20T02:52:38;93332.97;;;19.27;61.25
76084;BME280;64789;0.000;0.000;2023-07-20T02:55:04;93336.69;;;19.18;61.19
76084;BME280;64789;0.000;0.000;2023-07-20T02:57:29;93315.81;;;19.37;60.61
76084;BME280;64789;0.000;0.000;2023-07-20T02:59:55;93308.84;;;19.51;60.50
76084;BME280;64789;0.000;0.000;2023-07-20T03:02:20;93319.16;;;19.58;60.08
76084;BME280;64789;0.000;0.000;2023-07-20T03:04:46;93315.97;;;19.52;59.96
76084;BME280;64789;0.000;0.000;2023-07-20T03:07:11;93310.22;;;19.50;59.93
76084;BME280;64789;0.000;0.000;2023-07-20T03:09:38;93319.03;;;19.56;59.33
76084;BME280;64789;0.000;0.000;2023-07-20T03:12:04;93322.50;;;19.55;59.25
76084;BME280;64789;0.000;0.000;2023-07-20T03:14:30;93329.00;;;19.57;59.03
76084;BME280;64789;0.000;0.000;2023-07-20T03:16:56;93330.38;;;19.56;59.63
76084;BME280;64789;0.000;0.000;2023-07-20T03:19:22;93335.25;;;19.67;59.57
76084;BME280;64789;0.000;0.000;2023-07-20T03:21:47;93336.38;;;19.62;59.74
76084;BME280;64789;0.000;0.000;2023-07-20T03:24:13;93338.88;;;19.56;60.07
76084;BME280;64789;0.000;0.000;2023-07-20T03:26:39;93344.00;;;19.46;60.11
76084;BME280;64789;0.000;0.000;2023-07-20T03:29:06;93350.34;;;19.58;60.06
76084;BME280;64789;0.000;0.000;2023-07-20T03:31:32;93356.22;;;19.62;60.40
76084;BME280;64789;0.000;0.000;2023-07-20T03:33:58;93352.59;;;19.48;61.09
76084;BME280;64789;0.000;0.000;2023-07-20T03:36:23;93361.88;;;19.37;62.08
76084;BME280;64789;0.000;0.000;2023-07-20T03:38:49;93364.25;;;19.29;62.50
76084;BME280;64789;0.000;0.000;2023-07-20T03:41:15;93359.81;;;19.26;62.57
76084;BME280;64789;0.000;0.000;2023-07-20T03:43:41;93354.31;;;19.17;63.68
76084;BME280;64789;0.000;0.000;2023-07-20T03:46:07;93355.03;;;19.17;63.22
76084;BME280;64789;0.000;0.000;2023-07-20T03:48:33;93356.41;;;19.16;63.50
76084;BME280;64789;0.000;0.000;2023-07-20T03:50:58;93359.56;;;19.22;63.83
76084;BME280;64789;0.000;0.000;2023-07-20T03:53:26;93357.88;;;19.17;64.27
76084;BME280;64789;0.000;0.000;2023-07-20T03:55:52;93348.72;;;19.30;64.10
76084;BME280;64789;0.000;0.000;2023-07-20T03:58:18;93352.78;;;19.39;63.71
76084;BME280;64789;0.000;0.000;2023-07-20T04:00:51;93363.41;;;19.52;62.98
76084;BME280;64789;0.000;0.000;2023-07-20T04:03:17;93355.66;;;19.52;63.82
76084;BME280;64789;0.000;0.000;2023-07-20T04:05:43;93357.75;;;19.52;64.51
76084;BME280;64789;0.000;0.000;2023-07-20T04:08:09;93361.88;;;19.62;64.03
76084;BME280;64789;0.000;0.000;2023-07-20T04:10:36;93365.78;;;19.69;63.19
76084;BME280;64789;0.000;0.000;2023-07-20T04:13:02;93364.75;;;19.76;63.61
76084;BME280;64789;0.000;0.000;2023-07-20T04:15:27;93358.28;;;19.87;63.34
76084;BME280;64789;0.000;0.000;2023-07-20T04:17:53;93354.53;;;19.96;62.41
76084;BME280;64789;0.000;0.000;2023-07-20T04:20:18;93356.97;;;20.15;61.93
76084;BME280;64789;0.000;0.000;2023-07-20T04:22:44;93356.13;;;20.13;62.80
76084;BME280;64789;0.000;0.000;2023-07-20T04:25:13;93351.53;;;20.19;61.74
76084;BME280;64789;0.000;0.000;2023-07-20T04:27:38;93348.78;;;20.21;61.54
76084;BME280;64789;0.000;0.000;2023-07-20T04:30:06;93351.41;;;20.17;62.58
76084;BME280;64789;0.000;0.000;2023-07-20T04:32:32;93356.75;;;20.11;63.27
76084;BME280;64789;0.000;0.000;2023-07-20T04:35:00;93346.25;;;20.14;63.26
76084;BME280;64789;0.000;0.000;2023-07-20T04:37:25;93349.03;;;20.39;62.63
76084;BME280;64789;0.000;0.000;2023-07-20T04:39:51;93340.72;;;20.43;62.16
76084;BME280;64789;0.000;0.000;2023-07-20T04:42:17;93336.94;;;20.52;62.42
76084;BME280;64789;0.000;0.000;2023-07-20T04:44:42;93340.50;;;20.66;62.69
76084;BME280;64789;0.000;0.000;2023-07-20T04:47:09;93339.97;;;20.70;61.88
76084;BME280;64789;0.000;0.000;2023-07-20T04:49:37;93340.50;;;20.80;62.20
76084;BME280;64789;0.000;0.000;2023-07-20T04:52:02;93328.50;;;20.81;61.67
76084;BME280;64789;0.000;0.000;2023-07-20T04:54:29;93332.59;;;20.92;61.79
76084;BME280;64789;0.000;0.000;2023-07-20T04:56:55;93332.16;;;20.98;62.68
76084;BME280;64789;0.000;0.000;2023-07-20T04:59:22;93337.63;;;21.07;62.59
76084;BME280;64789;0.000;0.000;2023-07-20T05:01:47;93335.19;;;21.15;62.44
76084;BME280;64789;0.000;0.000;2023-07-20T05:04:15;93329.28;;;21.25;61.78
76084;BME280;64789;0.000;0.000;2023-07-20T05:06:40;93351.03;;;21.34;62.05
76084;BME280;64789;0.000;0.000;2023-07-20T05:09:06;93333.63;;;21.41;60.88
76084;BME280;64789;0.000;0.000;2023-07-20T05:11:32;93336.31;;;21.53;60.58
76084;BME280;64789;0.000;0.000;2023-07-20T05:13:59;93346.09;;;21.64;60.43
76084;BME280;64789;0.000;0.000;2023-07-20T05:16:25;93344.91;;;21.69;60.41
76084;BME280;64789;0.000;0.000;2023-07-20T05:18:51;93347.00;;;21.68;60.32
76084;BME280;64789;0.000;0.000;2023-07-20T05:21:17;93346.84;;;21.80;60.50
76084;BME280;64789;0.000;0.000;2023-07-20T05:23:43;93349.53;;;21.91;60.27
76084;BME280;64789;0.000;0.000;2023-07-20T05:26:11;93338.53;;;21.99;60.60
76084;BME280;64789;0.000;0.000;2023-07-20T05:28:37;93342.22;;;22.02;59.99
76084;BME280;64789;0.000;0.000;2023-07-20T05:31:03;93345.88;;;22.04;60.85
76084;BME280;64789;0.000;0.000;2023-07-20T05:33:28;93337.63;;;22.26;60.57
76084;BME280;64789;0.000;0.000;2023-07-20T05:35:54;93331.56;;;22.34;60.11
76084;BME280;64789;0.000;0.000;2023-07-20T05:38:20;93334.88;;;22.44;59.90
76084;BME280;64789;0.000;0.000;2023-07-20T05:40:46;93339.47;;;22.51;59.29
76084;BME280;64789;0.000;0.000;2023-07-20T05:43:12;93339.09;;;22.58;59.06
76084;BME280;64789;0.000;0.000;2023-07-20T05:45:41;93338.44;;;22.60;58.62
76084;BME280;64789;0.000;0.000;2023-07-20T05:48:07;93340.19;;;22.67;59.71
76084;BME280;64789;0.000;0.000;2023-07-20T05:50:35;93351.84;;;22.73;59.30
76084;BME280;64789;0.000;0.000;2023-07-20T05:53:00;93353.78;;;22.53;58.77
76084;BME280;64789;0.000;0.000;2023-07-20T05:55:26;93353.69;;;22.51;59.05
76084;BME280;64789;0.000;0.000;2023-07-20T05:57:52;93363.47;;;22.61;59.95
76084;BME280;64789;0.000;0.000;2023-07-20T06:00:17;93363.63;;;22.65;60.03
76084;BME280;64789;0.000;0.000;2023-07-20T06:02:44;93375.09;;;22.67;59.49
76084;BME280;64789;0.000;0.000;2023-07-20T06:05:10;93373.81;;;22.86;59.62
76084;BME280;64789;0.000;0.000;2023-07-20T06:07:36;93374.97;;;22.97;59.55
76084;BME280;64789;0.000;0.000;2023-07-20T06:10:02;93365.69;;;22.96;58.94
76084;BME280;64789;0.000;0.000;2023-07-20T06:12:28;93363.84;;;23.03;59.12
76084;BME280;64789;0.000;0.000;2023-07-20T06:14:54;93356.63;;;23.17;59.96
76084;BME280;64789;0.000;0.000;2023-07-20T06:17:20;93354.75;;;23.24;58.03
76084;BME280;64789;0.000;0.000;2023-07-20T06:19:46;93345.38;;;23.21;58.40
76084;BME280;64789;0.000;0.000;2023-07-20T06:22:12;93350.13;;;23.32;58.63
76084;BME280;64789;0.000;0.000;2023-07-20T06:24:38;93360.03;;;23.47;59.03
76084;BME280;64789;0.000;0.000;2023-07-20T06:27:04;93363.28;;;23.57;58.31
76084;BME280;64789;0.000;0.000;2023-07-20T06:29:31;93355.13;;;23.67;57.99
76084;BME280;64789;0.000;0.000;2023-07-20T06:31:57;93352.59;;;23.75;58.11
76084;BME280;64789;0.000;0.000;2023-07-20T06:34:22;93348.53;;;23.80;57.50
76084;BME280;64789;0.000;0.000;2023-07-20T06:36:48;93344.72;;;23.74;56.91
76084;BME280;64789;0.000;0.000;2023-07-20T06:39:14;93343.97;;;23.91;57.97
76084;BME280;64789;0.000;0.000;2023-07-20T06:41:40;93340.75;;;24.00;57.21
76084;BME280;64789;0.000;0.000;2023-07-20T06:44:06;93337.81;;;24.16;57.02
76084;BME280;64789;0.000;0.000;2023-07-20T06:46:33;93338.72;;;24.21;56.71
76084;BME280;64789;0.000;0.000;2023-07-20T06:48:59;93339.88;;;24.33;56.94
76084;BME280;64789;0.000;0.000;2023-07-20T06:51:24;93340.28;;;24.43;56.09
76084;BME280;64789;0.000;0.000;2023-07-20T06:53:50;93346.44;;;24.55;56.14
76084;BME280;64789;0.000;0.000;2023-07-20T06:56:16;93346.44;;;24.55;56.02
76084;BME280;64789;0.000;0.000;2023-07-20T06:58:41;93349.59;;;24.63;55.30
76084;BME280;64789;0.000;0.000;2023-07-20T07:01:07;93345.16;;;24.78;55.77
76084;BME280;64789;0.000;0.000;2023-07-20T07:03:33;93354.53;;;24.80;55.59
76084;BME280;64789;0.000;0.000;2023-07-20T07:05:59;93361.28;;;24.89;54.85
76084;BME280;64789;0.000;0.000;2023-07-20T07:08:25;93360.22;;;25.00;54.77
76084;BME280;64789;0.000;0.000;2023-07-20T07:10:51;93361.03;;;25.03;54.55
76084;BME280;64789;0.000;0.000;2023-07-20T07:13:18;93365.81;;;25.16;53.37
76084;BME280;64789;0.000;0.000;2023-07-20T07:15:44;93370.47;;;25.27;54.00
76084;BME280;64789;0.000;0.000;2023-07-20T07:18:10;93382.78;;;25.31;53.28
76084;BME280;64789;0.000;0.000;2023-07-20T07:20:36;93384.22;;;25.52;52.56
76084;BME280;64789;0.000;0.000;2023-07-20T07:23:02;93384.50;;;25.60;53.76
76084;BME280;64789;0.000;0.000;2023-07-20T07:25:28;93392.28;;;25.58;51.90
76084;BME280;64789;0.000;0.000;2023-07-20T07:27:54;93407.53;;;25.64;53.66
76084;BME280;64789;0.000;0.000;2023-07-20T07:30:21;93412.28;;;25.77;52.02
76084;BME280;64789;0.000;0.000;2023-07-20T07:32:47;93418.25;;;25.44;52.13
76084;BME280;64789;0.000;0.000;2023-07-20T07:35:13;93428.28;;;25.04;52.56
76084;BME280;64789;0.000;0.000;2023-07-20T07:37:39;93436.63;;;25.17;53.61
76084;BME280;64789;0.000;0.000;2023-07-20T07:40:05;93436.47;;;25.33;53.49
76084;BME280;64789;0.000;0.000;2023-07-20T07:42:32;93423.97;;;25.64;53.04
76084;BME280;64789;0.000;0.000;2023-07-20T07:44:57;93432.16;;;25.73;52.33
76084;BME280;64789;0.000;0.000;2023-07-20T07:47:23;93422.84;;;25.94;53.30
76084;BME280;64789;0.000;0.000;2023-07-20T07:49:48;93424.31;;;25.95;51.32
76084;BME280;64789;0.000;0.000;2023-07-20T07:52:15;93415.53;;;26.11;52.21
76084;BME280;64789;0.000;0.000;2023-07-20T07:54:41;93409.66;;;26.07;51.47
76084;BME280;64789;0.000;0.000;2023-07-20T07:57:06;93414.56;;;26.04;50.13
76084;BME280;64789;0.000;0.000;2023-07-20T07:59:32;93422.19;;;26.18;50.90
76084;BME280;64789;0.000;0.000;2023-07-20T08:02:03;93399.84;;;26.36;50.94
76084;BME280;64789;0.000;0.000;2023-07-20T08:04:30;93382.25;;;26.45;50.17
76084;BME280;64789;0.000;0.000;2023-07-20T08:06:56;93358.16;;;26.54;49.96
76084;BME280;64789;0.000;0.000;2023-07-20T08:09:21;93366.75;;;26.54;49.08
76084;BME280;64789;0.000;0.000;2023-07-20T08:11:47;93370.47;;;26.35;48.29
76084;BME280;64789;0.000;0.000;2023-07-20T08:14:13;93375.59;;;26.62;48.65
76084;BME280;64789;0.000;0.000;2023-07-20T08:16:39;93369.56;;;26.76;48.03
76084;BME280;64789;0.000;0.000;2023-07-20T08:19:05;93381.59;;;26.96;47.54
76084;BME280;64789;0.000;0.000;2023-07-20T08:21:30;93402.03;;;27.08;47.08
76084;BME280;64789;0.000;0.000;2023-07-20T08:23:56;93401.81;;;27.26;46.55
76084;BME280;64789;0.000;0.000;2023-07-20T08:26:23;93412.69;;;27.31;46.50
76084;BME280;64789;0.000;0.000;2023-07-20T08:28:48;93422.44;;;27.20;45.75
76084;BME280;64789;0.000;0.000;2023-07-20T08:31:14;93417.41;;;27.45;46.78
76084;BME280;64789;0.000;0.000;2023-07-20T08:33:40;93414.81;;;27.55;46.46
76084;BME280;64789;0.000;0.000;2023-07-20T08:36:06;93418.69;;;27.65;46.86
76084;BME280;64789;0.000;0.000;2023-07-20T08:38:32;93426.41;;;27.86;45.55
76084;BME280;64789;0.000;0.000;2023-07-20T08:40:58;93419.59;;;27.74;45.28
76084;BME280;64789;0.000;0.000;2023-07-20T08:43:25;93409.75;;;27.53;45.94
76084;BME280;64789;0.000;0.000;2023-07-20T08:45:51;93406.88;;;27.81;46.36
76084;BME280;64789;0.000;0.000;2023-07-20T08:48:20;93414.91;;;27.86;45.17
76084;BME280;64789;0.000;0.000;2023-07-20T08:50:47;93407.16;;;27.93;45.26
76084;BME280;64789;0.000;0.000;2023-07-20T08:53:12;93404.69;;;28.07;45.30
76084;BME280;64789;0.000;0.000;2023-07-20T08:55:39;93406.06;;;28.04;44.39
76084;BME280;64789;0.000;0.000;2023-07-20T08:58:06;93406.81;;;27.79;43.68
76084;BME280;64789;0.000;0.000;2023-07-20T09:00:33;93409.06;;;28.10;46.01
76084;BME280;64789;0.000;0.000;2023-07-20T09:03:00;93419.59;;;28.29;45.84
76084;BME280;64789;0.000;0.000;2023-07-20T09:05:28;93400.88;;;28.28;46.34
76084;BME280;64789;0.000;0.000;2023-07-20T09:07:54;93411.81;;;28.34;44.97
76084;BME280;64789;0.000;0.000;2023-07-20T09:10:20;93415.22;;;28.26;45.04
76084;BME280;64789;0.000;0.000;2023-07-20T09:12:46;93418.56;;;28.17;44.64
76084;BME280;64789;0.000;0.000;2023-07-20T09:15:12;93408.94;;;28.34;45.65
76084;BME280;64789;0.000;0.000;2023-07-20T09:17:38;93401.28;;;28.46;43.45
76084;BME280;64789;0.000;0.000;2023-07-20T09:20:07;93416.28;;;28.41;43.70
76084;BME280;64789;0.000;0.000;2023-07-20T09:22:39;93414.56;;;28.30;41.61
76084;BME280;64789;0.000;0.000;2023-07-20T09:25:14;93414.00;;;28.35;43.49
76084;BME280;64789;0.000;0.000;2023-07-20T09:27:41;93408.31;;;28.39;42.03
76084;BME280;64789;0.000;0.000;2023-07-20T09:30:07;93405.00;;;28.19;41.11
76084;BME280;64789;0.000;0.000;2023-07-20T09:32:44;93413.44;;;28.43;42.00
76084;BME280;64789;0.000;0.000;2023-07-20T09:35:17;93413.75;;;28.57;41.20
76084;BME280;64789;0.000;0.000;2023-07-20T09:37:48;93399.59;;;28.65;39.00
76084;BME280;64789;0.000;0.000;2023-07-20T09:40:19;93399.09;;;28.75;39.37
76084;BME280;64789;0.000;0.000;2023-07-20T09:42:47;93402.06;;;28.79;39.37
76084;BME280;64789;0.000;0.000;2023-07-20T09:45:13;93397.47;;;28.99;38.81
76084;BME280;64789;0.000;0.000;2023-07-20T09:47:39;93393.53;;;28.83;39.64
76084;BME280;64789;0.000;0.000;2023-07-20T09:50:07;93390.13;;;28.92;40.14
76084;BME280;64789;0.000;0.000;2023-07-20T09:52:39;93390.50;;;29.10;38.50
76084;BME280;64789;0.000;0.000;2023-07-20T09:55:09;93381.41;;;29.22;38.64
76084;BME280;64789;0.000;0.000;2023-07-20T09:57:37;93382.38;;;29.35;38.61
76084;BME280;64789;0.000;0.000;2023-07-20T10:00:03;93376.75;;;29.41;39.10
76084;BME280;64789;0.000;0.000;2023-07-20T10:02:35;93374.69;;;29.47;39.20
76084;BME280;64789;0.000;0.000;2023-07-20T10:05:03;93374.63;;;29.43;37.68
76084;BME280;64789;0.000;0.000;2023-07-20T10:07:29;93373.69;;;29.33;36.91
76084;BME280;64789;0.000;0.000;2023-07-20T10:09:55;93364.59;;;29.10;38.38
76084;BME280;64789;0.000;0.000;2023-07-20T10:12:22;93366.53;;;28.66;37.44
76084;BME280;64789;0.000;0.000;2023-07-20T10:14:53;93355.38;;;28.80;38.27
76084;BME280;64789;0.000;0.000;2023-07-20T10:17:20;93363.72;;;28.36;39.01
76084;BME280;64789;0.000;0.000;2023-07-20T10:19:47;93355.44;;;28.21;38.66
76084;BME280;64789;0.000;0.000;2023-07-20T10:22:19;93354.63;;;28.16;39.51
76084;BME280;64789;0.000;0.000;2023-07-20T10:24:49;93354.22;;;28.00;40.23
76084;BME280;64789;0.000;0.000;2023-07-20T10:27:15;93360.34;;;28.14;40.66
76084;BME280;64789;0.000;0.000;2023-07-20T10:29:41;93361.75;;;27.85;39.29
76084;BME280;64789;0.000;0.000;2023-07-20T10:32:08;93363.66;;;27.75;39.77
76084;BME280;64789;0.000;0.000;2023-07-20T10:34:34;93364.91;;;27.68;39.30
76084;BME280;64789;0.000;0.000;2023-07-20T10:36:59;93375.09;;;27.73;40.28
76084;BME280;64789;0.000;0.000;2023-07-20T10:39:28;93378.88;;;28.09;39.43
76084;BME280;64789;0.000;0.000;2023-07-20T10:42:03;93377.53;;;28.12;39.85
76084;BME280;64789;0.000;0.000;2023-07-20T10:44:29;93378.25;;;28.13;38.51
76084;BME280;64789;0.000;0.000;2023-07-20T10:47:02;93373.44;;;27.93;39.03
76084;BME280;64789;0.000;0.000;2023-07-20T10:49:28;93365.00;;;27.72;37.45
76084;BME280;64789;0.000;0.000;2023-07-20T10:51:57;93360.34;;;27.59;38.54
76084;BME280;64789;0.000;0.000;2023-07-20T10:56:50;93362.59;;;27.90;40.12
76084;BME280;64789;0.000;0.000;2023-07-20T10:59:20;93360.72;;;28.00;37.90
76084;BME280;64789;0.000;0.000;2023-07-20T11:01:46;93345.72;;;28.04;38.13
76084;BME280;64789;0.000;0.000;2023-07-20T11:04:12;93321.78;;;27.95;37.30
76084;BME280;64789;0.000;0.000;2023-07-20T11:06:42;93299.81;;;28.06;37.08
76084;BME280;64789;0.000;0.000;2023-07-20T11:09:09;93309.19;;;27.79;36.91
76084;BME280;64789;0.000;0.000;2023-07-20T11:11:41;93313.41;;;27.76;38.07
76084;BME280;64789;0.000;0.000;2023-07-20T11:14:09;93319.06;;;27.72;38.87
76084;BME280;64789;0.000;0.000;2023-07-20T11:16:36;93320.47;;;27.71;38.59
76084;BME280;64789;0.000;0.000;2023-07-20T11:19:03;93291.88;;;27.75;39.11
76084;BME280;64789;0.000;0.000;2023-07-20T11:21:30;93282.53;;;27.74;37.78
76084;BME280;64789;0.000;0.000;2023-07-20T11:24:02;93304.22;;;27.81;38.68
76084;BME280;64789;0.000;0.000;2023-07-20T11:26:28;93296.63;;;27.94;38.88
76084;BME280;64789;0.000;0.000;2023-07-20T11:28:54;93285.75;;;28.20;38.30
76084;BME280;64789;0.000;0.000;2023-07-20T11:31:20;93292.75;;;28.45;38.00
76084;BME280;64789;0.000;0.000;2023-07-20T11:33:46;93295.22;;;28.58;36.87
76084;BME280;64789;0.000;0.000;2023-07-20T11:36:12;93295.94;;;28.59;33.74
76084;BME280;64789;0.000;0.000;2023-07-20T11:38:41;93291.75;;;28.64;34.78
76084;BME280;64789;0.000;0.000;2023-07-20T11:41:09;93290.78;;;28.87;37.14
76084;BME280;64789;0.000;0.000;2023-07-20T11:43:35;93289.81;;;28.75;37.05
76084;BME280;64789;0.000;0.000;2023-07-20T11:46:04;93279.84;;;28.80;34.77
76084;BME280;64789;0.000;0.000;2023-07-20T11:48:29;93271.75;;;28.70;35.89
76084;BME280;64789;0.000;0.000;2023-07-20T11:50:55;93272.63;;;28.79;36.54
76084;BME280;64789;0.000;0.000;2023-07-20T11:53:21;93262.91;;;28.96;35.20
76084;BME280;64789;0.000;0.000;2023-07-20T11:55:47;93264.66;;;29.13;34.64
76084;BME280;64789;0.000;0.000;2023-07-20T11:58:13;93266.38;;;29.26;36.24
76084;BME280;64789;0.000;0.000;2023-07-20T12:00:42;93260.88;;;29.42;33.72
76084;BME280;64789;0.000;0.000;2023-07-20T12:03:09;93252.03;;;29.30;35.42
76084;BME280;64789;0.000;0.000;2023-07-20T12:05:36;93260.03;;;29.34;36.26
76084;BME280;64789;0.000;0.000;2023-07-20T12:08:02;93256.06;;;29.55;36.81
76084;BME280;64789;0.000;0.000;2023-07-20T12:10:28;93251.09;;;29.59;35.23
76084;BME280;64789;0.000;0.000;2023-07-20T12:13:00;93242.19;;;29.85;34.35
76084;BME280;64789;0.000;0.000;2023-07-20T12:15:26;93242.19;;;29.87;36.52
76084;BME280;64789;0.000;0.000;2023-07-20T12:17:55;93246.19;;;30.14;34.80
76084;BME280;64789;0.000;0.000;2023-07-20T12:20:28;93250.63;;;30.21;34.45
76084;BME280;64789;0.000;0.000;2023-07-20T12:23:01;93245.13;;;29.91;36.49
76084;BME280;64789;0.000;0.000;2023-07-20T12:25:47;93240.19;;;29.96;34.60
76084;BME280;64789;0.000;0.000;2023-07-20T12:28:14;93227.03;;;29.84;36.85
76084;BME280;64789;0.000;0.000;2023-07-20T12:30:40;93216.28;;;29.87;36.38
76084;BME280;64789;0.000;0.000;2023-07-20T12:33:06;93220.56;;;30.34;36.70
76084;BME280;64789;0.000;0.000;2023-07-20T12:35:32;93225.63;;;30.37;36.64
76084;BME280;64789;0.000;0.000;2023-07-20T12:37:58;93224.09;;;30.32;37.03
76084;BME280;64789;0.000;0.000;2023-07-20T12:40:24;93220.09;;;30.53;36.38
76084;BME280;64789;0.000;0.000;2023-07-20T12:42:50;93220.91;;;30.62;36.62
76084;BME280;64789;0.000;0.000;2023-07-20T12:45:15;93218.00;;;30.60;37.45
76084;BME280;64789;0.000;0.000;2023-07-20T12:47:41;93218.97;;;30.83;35.93
76084;BME280;64789;0.000;0.000;2023-07-20T12:50:12;93210.50;;;30.99;34.93
76084;BME280;64789;0.000;0.000;2023-07-20T12:52:38;93211.38;;;31.11;34.32
76084;BME280;64789;0.000;0.000;2023-07-20T12:55:05;93219.88;;;30.97;34.77
76084;BME280;64789;0.000;0.000;2023-07-20T12:57:31;93211.44;;;31.19;34.16
76084;BME280;64789;0.000;0.000;2023-07-20T12:59:57;93210.84;;;31.35;34.23
76084;BME280;64789;0.000;0.000;2023-07-20T13:02:23;93211.53;;;31.28;33.28
76084;BME280;64789;0.000;0.000;2023-07-20T13:04:49;93210.03;;;31.23;33.32
76084;BME280;64789;0.000;0.000;2023-07-20T13:07:15;93207.19;;;31.27;33.45
76084;BME280;64789;0.000;0.000;2023-07-20T13:09:41;93207.06;;;31.14;33.25
76084;BME280;64789;0.000;0.000;2023-07-20T13:12:07;93200.78;;;31.38;32.56
76084;BME280;64789;0.000;0.000;2023-07-20T13:14:33;93202.81;;;31.24;33.20
76084;BME280;64789;0.000;0.000;2023-07-20T13:16:58;93193.47;;;31.25;33.32